createdAt,value
2022-08-26T00:01:57.730Z,9.87
2022-08-26T00:04:31.971Z,10.40
2022-08-26T00:07:05.266Z,10.13
2022-08-26T00:09:39.087Z,10.37
2022-08-26T00:12:12.668Z,9.20
2022-08-26T00:14:44.992Z,10.37
2022-08-26T00:17:16.978Z,11.30
2022-08-26T00:19:48.930Z,9.73
2022-08-26T00:22:23.044Z,9.90
2022-08-26T00:24:56.451Z,9.40
2022-08-26T00:27:28.373Z,10.10
2022-08-26T00:30:01.249Z,10.77
2022-08-26T00:32:33.613Z,10.03
2022-08-26T00:35:07.513Z,11.60
2022-08-26T00:37:41.781Z,11.47
2022-08-26T00:40:18.043Z,10.47
2022-08-26T00:42:50.113Z,10.40
2022-08-26T00:45:22.808Z,11.40
2022-08-26T00:48:02.037Z,11.07
2022-08-26T00:50:38.809Z,12.57
2022-08-26T00:53:23.813Z,10.00
2022-08-26T00:56:02.605Z,11.20
2022-08-26T00:58:36.965Z,10.60
2022-08-26T01:01:09.929Z,9.67
2022-08-26T01:03:43.857Z,10.27
2022-08-26T01:06:16.264Z,10.40
2022-08-26T01:08:48.868Z,10.10
2022-08-26T01:11:20.904Z,10.20
2022-08-26T01:13:54.969Z,11.07
2022-08-26T01:16:27.374Z,10.47
2022-08-26T01:19:05.341Z,10.70
2022-08-26T01:21:50.512Z,11.57
2022-08-26T01:24:24.154Z,10.17
2022-08-26T01:27:02.698Z,10.13
2022-08-26T01:29:36.863Z,11.23
2022-08-26T01:32:10.871Z,10.80
2022-08-26T01:34:43.111Z,10.53
2022-08-26T01:37:21.008Z,10.37
2022-08-26T01:39:57.330Z,10.30
2022-08-26T01:42:29.956Z,10.40
2022-08-26T01:45:12.086Z,9.90
2022-08-26T01:47:44.859Z,11.43
2022-08-26T01:50:27.535Z,11.67
2022-08-26T01:53:03.358Z,9.83
2022-08-26T01:55:37.678Z,11.27
2022-08-26T01:58:17.541Z,10.63
2022-08-26T02:00:51.760Z,11.33
2022-08-26T02:03:24.338Z,10.30
2022-08-26T02:06:03.887Z,10.30
2022-08-26T02:08:39.693Z,10.90
2022-08-26T02:11:12.486Z,11.13
2022-08-26T02:13:47.602Z,10.87
2022-08-26T02:16:22.901Z,11.40
2022-08-26T02:18:57.840Z,10.20
2022-08-26T02:21:30.511Z,10.90
2022-08-26T02:24:11.448Z,11.93
2022-08-26T02:26:45.460Z,10.80
2022-08-26T02:29:25.714Z,11.47
2022-08-26T02:31:57.563Z,10.83
2022-08-26T02:34:35.027Z,11.17
2022-08-26T02:37:08.939Z,10.53
2022-08-26T02:39:42.967Z,10.90
2022-08-26T02:42:14.834Z,10.60
2022-08-26T02:44:47.131Z,11.07
2022-08-26T02:47:19.129Z,14.20
2022-08-26T02:49:51.804Z,10.77
2022-08-26T02:52:24.153Z,10.83
2022-08-26T02:54:56.124Z,11.23
2022-08-26T02:57:28.366Z,10.93
2022-08-26T03:00:01.260Z,11.10
2022-08-26T03:02:34.366Z,11.10
2022-08-26T03:05:07.379Z,10.90
2022-08-26T03:07:40.051Z,11.10
2022-08-26T03:10:16.520Z,11.97
2022-08-26T03:12:48.894Z,10.40
2022-08-26T03:15:21.033Z,12.30
2022-08-26T03:17:53.022Z,12.33
2022-08-26T03:20:25.292Z,11.27
2022-08-26T03:22:57.241Z,11.87
2022-08-26T03:25:29.303Z,11.70
2022-08-26T03:28:01.221Z,9.93
2022-08-26T03:30:45.039Z,11.40
2022-08-26T03:33:17.901Z,11.40
2022-08-26T03:35:50.864Z,11.90
2022-08-26T03:38:25.150Z,11.00
2022-08-26T03:40:57.130Z,11.73
2022-08-26T03:43:29.119Z,12.00
2022-08-26T03:46:11.353Z,11.83
2022-08-26T03:48:44.063Z,11.90
2022-08-26T03:51:19.095Z,10.90
2022-08-26T03:53:51.122Z,12.07
2022-08-26T03:56:23.086Z,11.37
2022-08-26T03:58:56.091Z,12.83
2022-08-26T04:01:28.679Z,11.70
2022-08-26T04:04:01.715Z,12.80
2022-08-26T04:06:38.286Z,12.00
2022-08-26T04:09:17.906Z,11.83
2022-08-26T04:11:50.340Z,11.97
2022-08-26T04:14:24.852Z,12.60
2022-08-26T04:16:56.893Z,13.00
2022-08-26T04:19:29.340Z,12.60
2022-08-26T04:22:01.610Z,12.67
2022-08-26T04:24:33.637Z,12.07
2022-08-26T04:27:08.651Z,12.17
2022-08-26T04:29:41.501Z,12.87
2022-08-26T04:32:13.504Z,12.20
2022-08-26T04:34:45.615Z,12.07
2022-08-26T04:37:18.467Z,12.73
2022-08-26T04:39:54.514Z,11.97
2022-08-26T04:42:26.483Z,13.83
2022-08-26T04:44:58.867Z,12.30
2022-08-26T04:47:32.474Z,12.67
2022-08-26T04:50:06.964Z,12.43
2022-08-26T04:52:39.457Z,13.43
2022-08-26T04:55:11.492Z,11.60
2022-08-26T04:57:43.647Z,12.63
2022-08-26T05:00:15.785Z,12.50
2022-08-26T05:02:48.213Z,13.07
2022-08-26T05:05:23.541Z,14.30
2022-08-26T05:07:55.573Z,13.70
2022-08-26T05:10:27.628Z,13.30
2022-08-26T05:13:00.385Z,14.27
2022-08-26T05:15:32.385Z,15.00
2022-08-26T05:18:05.747Z,14.77
2022-08-26T05:20:41.398Z,13.07
2022-08-26T05:23:14.816Z,13.37
2022-08-26T05:25:48.443Z,13.80
2022-08-26T05:28:21.885Z,13.90
2022-08-26T05:30:55.545Z,14.30
2022-08-26T05:33:27.574Z,13.97
2022-08-26T05:36:07.544Z,13.33
2022-08-26T05:38:42.289Z,12.93
2022-08-26T05:41:34.161Z,14.13
2022-08-26T05:44:11.179Z,14.10
2022-08-26T05:46:44.720Z,16.20
2022-08-26T05:49:17.018Z,20.07
2022-08-26T05:51:49.241Z,14.47
2022-08-26T05:54:22.629Z,13.50
2022-08-26T05:56:54.522Z,15.10
2022-08-26T05:59:27.061Z,14.63
2022-08-26T06:01:59.728Z,14.00
2022-08-26T06:04:31.958Z,14.60
2022-08-26T06:07:03.965Z,14.50
2022-08-26T06:09:39.289Z,16.47
2022-08-26T06:12:11.303Z,13.60
2022-08-26T06:14:43.227Z,13.97
2022-08-26T06:17:16.399Z,13.80
2022-08-26T06:19:50.138Z,15.73
2022-08-26T06:22:40.924Z,15.93
2022-08-26T06:25:31.481Z,13.53
2022-08-26T06:28:03.901Z,16.03
2022-08-26T06:30:40.648Z,16.03
2022-08-26T06:33:13.901Z,15.70
2022-08-26T06:35:47.025Z,16.20
2022-08-26T06:38:20.288Z,14.00
2022-08-26T06:40:54.756Z,16.10
2022-08-26T06:43:28.194Z,13.40
2022-08-26T06:46:02.952Z,13.40
2022-08-26T06:48:37.424Z,13.17
2022-08-26T06:51:15.351Z,14.07
2022-08-26T06:53:48.782Z,13.17
2022-08-26T06:56:27.550Z,14.40
2022-08-26T06:59:00.078Z,12.67
2022-08-26T07:01:34.726Z,15.00
2022-08-26T07:04:10.553Z,13.60
2022-08-26T07:06:47.088Z,14.63
2022-08-26T07:09:19.107Z,14.23
2022-08-26T07:11:52.249Z,14.67
2022-08-26T07:14:26.220Z,14.10
2022-08-26T07:16:59.451Z,13.07
2022-08-26T07:19:31.898Z,12.80
2022-08-26T07:22:06.469Z,14.40
2022-08-26T07:24:44.161Z,14.00
2022-08-26T07:27:17.269Z,14.37
2022-08-26T07:29:49.287Z,14.10
2022-08-26T07:32:22.851Z,14.83
2022-08-26T07:34:55.157Z,13.73
2022-08-26T07:37:27.021Z,16.23
2022-08-26T07:40:04.639Z,11.80
2022-08-26T07:42:36.576Z,13.37
2022-08-26T07:45:08.741Z,12.90
2022-08-26T07:47:40.843Z,13.73
2022-08-26T07:50:13.471Z,13.17
2022-08-26T07:52:47.543Z,13.23
2022-08-26T07:55:19.543Z,14.20
2022-08-26T07:57:51.671Z,15.70
2022-08-26T08:00:23.944Z,13.60
2022-08-26T08:02:56.078Z,13.80
2022-08-26T08:05:33.736Z,14.60
2022-08-26T08:08:26.889Z,14.97
2022-08-26T08:11:00.138Z,13.40
2022-08-26T08:13:32.112Z,13.50
2022-08-26T08:16:05.258Z,14.40
2022-08-26T08:18:37.147Z,13.33
2022-08-26T08:21:21.730Z,13.30
2022-08-26T08:23:57.710Z,13.13
2022-08-26T08:26:29.735Z,15.17
2022-08-26T08:29:01.696Z,14.00
2022-08-26T08:34:28.894Z,13.90
2022-08-26T08:37:01.169Z,15.20
2022-08-26T08:39:35.668Z,13.97
2022-08-26T08:42:45.660Z,12.63
2022-08-26T08:45:23.123Z,14.47
2022-08-26T08:47:58.022Z,14.03
2022-08-26T08:50:33.837Z,14.37
2022-08-26T08:53:15.156Z,13.57
2022-08-26T08:56:05.163Z,15.20
2022-08-26T08:58:49.616Z,14.20
2022-08-26T09:01:28.371Z,15.23
2022-08-26T09:04:22.018Z,13.33
2022-08-26T09:09:37.060Z,15.53
2022-08-26T09:12:15.984Z,14.73
2022-08-26T09:14:49.613Z,14.60
2022-08-26T09:17:26.139Z,14.37
2022-08-26T09:20:09.468Z,14.67
2022-08-26T09:22:44.303Z,14.30
2022-08-26T09:25:16.534Z,14.50
2022-08-26T09:27:52.808Z,16.30
2022-08-26T09:30:34.437Z,14.73
2022-08-26T09:33:10.863Z,17.23
2022-08-26T09:35:47.461Z,16.73
2022-08-26T09:38:27.994Z,13.57
2022-08-26T09:41:05.074Z,15.17
2022-08-26T09:43:37.694Z,13.87
2022-08-26T09:46:19.552Z,14.53
2022-08-26T09:48:53.024Z,14.23
2022-08-26T09:51:31.512Z,14.40
2022-08-26T09:54:05.691Z,14.90
2022-08-26T09:56:40.306Z,14.53
2022-08-26T09:59:12.250Z,12.83
2022-08-26T10:01:45.205Z,14.97
2022-08-26T10:04:22.562Z,15.63
2022-08-26T10:06:58.054Z,15.50
2022-08-26T10:09:34.473Z,14.90
2022-08-26T10:12:13.746Z,15.00
2022-08-26T10:14:55.465Z,14.97
2022-08-26T10:17:38.235Z,14.50
2022-08-26T10:20:24.003Z,14.03
2022-08-26T10:23:09.505Z,14.70
2022-08-26T10:25:57.966Z,14.50
2022-08-26T10:28:35.818Z,18.43
2022-08-26T10:31:27.615Z,13.50
2022-08-26T10:34:00.784Z,15.13
2022-08-26T10:37:15.559Z,14.23
2022-08-26T10:39:57.222Z,13.50
2022-08-26T10:42:49.274Z,14.13
2022-08-26T10:45:25.387Z,15.83
2022-08-26T10:48:03.504Z,15.90
2022-08-26T10:50:40.516Z,16.40
2022-08-26T10:53:51.410Z,15.90
2022-08-26T10:56:39.143Z,15.20
2022-08-26T10:59:16.809Z,15.60
2022-08-26T11:02:10.264Z,15.23
2022-08-26T11:04:48.210Z,16.60
2022-08-26T11:07:39.884Z,15.60
2022-08-26T11:10:21.368Z,15.30
2022-08-26T11:12:54.894Z,16.43
2022-08-26T11:15:29.198Z,14.53
2022-08-26T11:18:06.106Z,14.80
2022-08-26T11:20:42.107Z,16.10
2022-08-26T11:23:23.158Z,16.07
2022-08-26T11:26:00.971Z,15.77
2022-08-26T11:28:44.768Z,15.10
2022-08-26T11:31:25.762Z,13.97
2022-08-26T11:34:04.216Z,13.87
2022-08-26T11:36:47.891Z,13.80
2022-08-26T11:39:31.991Z,12.73
2022-08-26T11:42:24.737Z,12.13
2022-08-26T11:45:03.546Z,12.93
2022-08-26T11:47:37.756Z,11.70
2022-08-26T11:50:13.374Z,12.97
2022-08-26T11:52:55.753Z,12.37
2022-08-26T11:55:29.840Z,12.20
2022-08-26T11:58:05.040Z,10.60
2022-08-26T12:00:55.089Z,10.83
2022-08-26T12:03:48.509Z,11.00
2022-08-26T12:06:29.641Z,10.17
2022-08-26T12:09:09.719Z,10.90
2022-08-26T12:11:41.997Z,10.80
2022-08-26T12:14:24.334Z,10.90
2022-08-26T12:17:12.000Z,10.70
2022-08-26T12:19:44.425Z,10.90
2022-08-26T12:22:24.071Z,10.90
2022-08-26T12:25:05.292Z,10.67
2022-08-26T12:27:40.225Z,11.00
2022-08-26T12:30:19.207Z,12.30
2022-08-26T12:33:03.552Z,13.10
2022-08-26T12:35:56.584Z,11.90
2022-08-26T12:38:30.151Z,14.27
2022-08-26T12:41:02.623Z,12.27
2022-08-26T12:43:42.360Z,13.27
2022-08-26T12:46:17.476Z,11.77
2022-08-26T12:48:49.748Z,11.83
2022-08-26T12:51:30.101Z,11.50
2022-08-26T12:54:06.656Z,11.83
2022-08-26T12:56:39.849Z,13.17
2022-08-26T12:59:25.737Z,12.30
2022-08-26T13:01:58.892Z,13.27
2022-08-26T13:04:38.762Z,13.77
2022-08-26T13:07:25.665Z,13.23
2022-08-26T13:09:59.043Z,15.27
2022-08-26T13:12:34.901Z,14.73
2022-08-26T13:15:08.225Z,13.87
2022-08-26T13:17:40.403Z,14.63
2022-08-26T13:20:12.283Z,12.53
2022-08-26T13:22:44.706Z,12.93
2022-08-26T13:25:24.025Z,14.93
2022-08-26T13:27:56.690Z,14.50
2022-08-26T13:30:29.577Z,13.13
2022-08-26T13:33:02.862Z,15.13
2022-08-26T13:35:36.021Z,15.73
2022-08-26T13:38:14.654Z,14.60
2022-08-26T13:41:06.039Z,16.07
2022-08-26T13:43:38.107Z,14.87
2022-08-26T13:46:10.490Z,13.47
2022-08-26T13:48:42.466Z,13.93
2022-08-26T13:51:18.630Z,12.77
2022-08-26T13:53:51.286Z,13.23
2022-08-26T13:56:24.259Z,15.00
2022-08-26T13:58:57.370Z,17.20
2022-08-26T14:01:30.694Z,13.73
2022-08-26T14:04:03.348Z,15.03
2022-08-26T14:06:35.785Z,13.80
2022-08-26T14:09:08.223Z,14.10
2022-08-26T14:11:54.561Z,14.87
2022-08-26T14:14:27.147Z,13.67
2022-08-26T14:17:00.535Z,14.97
2022-08-26T14:19:33.121Z,14.07
2022-08-26T14:22:05.528Z,13.70
2022-08-26T14:24:37.528Z,15.10
2022-08-26T14:27:10.004Z,15.03
2022-08-26T14:29:42.356Z,14.30
2022-08-26T14:32:22.915Z,14.43
2022-08-26T14:34:56.074Z,16.20
2022-08-26T14:37:28.251Z,16.47
2022-08-26T14:40:00.444Z,18.13
2022-08-26T14:42:34.155Z,16.20
2022-08-26T14:45:09.424Z,15.10
2022-08-26T14:47:42.090Z,15.33
2022-08-26T14:50:17.556Z,15.03
2022-08-26T14:53:09.631Z,14.23
2022-08-26T14:55:42.466Z,16.20
2022-08-26T14:58:14.703Z,14.50
2022-08-26T15:00:46.863Z,14.77
2022-08-26T15:05:56.113Z,14.80
2022-08-26T15:08:28.247Z,13.83
2022-08-26T15:11:00.444Z,14.10
2022-08-26T15:13:32.582Z,14.10
2022-08-26T15:16:04.699Z,11.80
2022-08-26T15:18:37.269Z,12.90
2022-08-26T15:21:09.260Z,12.37
2022-08-26T15:23:42.479Z,14.43
2022-08-26T15:26:20.644Z,11.70
2022-08-26T15:28:52.966Z,11.97
2022-08-26T15:31:31.061Z,11.00
2022-08-26T15:34:07.297Z,10.50
2022-08-26T15:36:39.545Z,9.67
2022-08-26T15:39:12.196Z,9.97
2022-08-26T15:41:44.855Z,9.93
2022-08-26T15:44:19.295Z,10.00
2022-08-26T15:46:54.250Z,10.30
2022-08-26T15:49:28.837Z,10.90
2022-08-26T15:52:04.237Z,9.63
2022-08-26T15:54:37.848Z,9.00
2022-08-26T15:57:15.351Z,9.27
2022-08-26T15:59:48.612Z,8.53
2022-08-26T16:02:21.530Z,9.40
2022-08-26T16:04:53.857Z,9.87
2022-08-26T16:07:27.032Z,8.80
2022-08-26T16:09:59.159Z,9.00
2022-08-26T16:12:31.226Z,6.30
2022-08-26T16:15:03.950Z,7.47
2022-08-26T16:17:35.918Z,8.20
2022-08-26T16:20:08.948Z,7.17
2022-08-26T16:22:41.209Z,6.30
2022-08-26T16:25:13.287Z,7.30
2022-08-26T16:27:45.428Z,6.60
2022-08-26T16:30:19.344Z,7.80
2022-08-26T16:32:51.878Z,7.73
2022-08-26T16:35:24.512Z,8.53
2022-08-26T16:37:56.685Z,8.97
2022-08-26T16:40:29.721Z,7.73
2022-08-26T16:43:03.050Z,6.93
2022-08-26T16:45:38.119Z,7.07
2022-08-26T16:48:14.154Z,6.27
2022-08-26T16:50:46.564Z,6.27
2022-08-26T16:53:19.271Z,6.43
2022-08-26T16:55:51.716Z,6.00
2022-08-26T16:58:23.901Z,6.37
2022-08-26T17:00:56.740Z,6.17
2022-08-26T17:03:28.752Z,7.13
2022-08-26T17:06:01.181Z,5.43
2022-08-26T17:08:33.380Z,6.10
2022-08-26T17:11:06.094Z,7.17
2022-08-26T17:13:39.288Z,7.33
2022-08-26T17:16:12.576Z,7.03
2022-08-26T17:18:44.880Z,9.47
2022-08-26T17:21:17.322Z,8.80
2022-08-26T17:23:49.345Z,9.43
2022-08-26T17:26:21.303Z,8.70
2022-08-26T17:28:53.983Z,9.13
2022-08-26T17:31:27.033Z,9.43
2022-08-26T17:33:59.067Z,9.13
2022-08-26T17:36:31.448Z,10.27
2022-08-26T17:39:03.809Z,10.83
2022-08-26T17:41:35.946Z,10.10
2022-08-26T17:44:08.171Z,9.20
2022-08-26T17:46:40.209Z,7.67
2022-08-26T17:49:12.306Z,8.00
2022-08-26T17:51:44.308Z,7.90
2022-08-26T17:54:16.476Z,7.77
2022-08-26T17:56:48.378Z,6.17
2022-08-26T17:59:20.927Z,7.80
2022-08-26T18:01:54.627Z,7.90
2022-08-26T18:04:27.176Z,8.20
2022-08-26T18:06:59.294Z,7.47
2022-08-26T18:09:32.595Z,8.83
2022-08-26T18:12:05.209Z,9.37
2022-08-26T18:14:37.233Z,9.53
2022-08-26T18:17:09.123Z,10.00
2022-08-26T18:22:15.621Z,10.50
2022-08-26T18:24:52.776Z,9.90
2022-08-26T18:27:30.598Z,9.90
2022-08-26T18:30:06.711Z,11.30
2022-08-26T18:32:38.602Z,10.67
2022-08-26T18:35:11.312Z,12.50
2022-08-26T18:37:44.444Z,10.90
2022-08-26T18:40:16.786Z,11.33
2022-08-26T18:42:54.186Z,11.90
2022-08-26T18:45:26.404Z,11.57
2022-08-26T18:47:58.512Z,10.90
2022-08-26T18:50:30.442Z,10.27
2022-08-26T18:53:02.876Z,10.60
2022-08-26T18:55:35.023Z,11.73
2022-08-26T18:58:07.042Z,11.33
2022-08-26T19:00:39.072Z,11.00
2022-08-26T19:03:18.422Z,10.57
2022-08-26T19:05:51.161Z,10.67
2022-08-26T19:08:23.393Z,11.67
2022-08-26T19:10:55.358Z,11.30
2022-08-26T19:13:27.366Z,11.67
2022-08-26T19:15:59.392Z,13.83
2022-08-26T19:18:32.438Z,13.30
2022-08-26T19:21:06.525Z,12.53
2022-08-26T19:23:38.830Z,13.20
2022-08-26T19:26:14.634Z,12.20
2022-08-26T19:28:48.223Z,11.63
2022-08-26T19:31:20.296Z,12.57
2022-08-26T19:33:52.595Z,12.37
2022-08-26T19:36:25.885Z,10.70
2022-08-26T19:38:58.167Z,11.00
2022-08-26T19:41:36.531Z,12.17
2022-08-26T19:44:33.669Z,12.50
2022-08-26T19:47:08.275Z,13.00
2022-08-26T19:49:40.377Z,12.27
2022-08-26T19:52:12.454Z,11.87
2022-08-26T19:54:44.594Z,11.63
2022-08-26T19:57:17.087Z,11.30
2022-08-26T19:59:49.088Z,12.10
2022-08-26T20:02:21.113Z,12.27
2022-08-26T20:04:53.515Z,11.90
2022-08-26T20:07:25.631Z,11.87
2022-08-26T20:10:03.240Z,11.50
2022-08-26T20:12:35.786Z,12.07
2022-08-26T20:15:09.942Z,11.80
2022-08-26T20:17:41.992Z,12.10
2022-08-26T20:20:33.946Z,10.20
2022-08-26T20:23:06.160Z,9.97
2022-08-26T20:25:38.143Z,11.10
2022-08-26T20:28:10.220Z,11.27
2022-08-26T20:30:42.294Z,11.27
2022-08-26T20:33:14.432Z,11.90
2022-08-26T20:35:46.904Z,11.33
2022-08-26T20:38:21.565Z,11.53
2022-08-26T20:40:54.216Z,10.80
2022-08-26T20:43:28.475Z,13.40
2022-08-26T20:46:00.941Z,12.53
2022-08-26T20:48:33.027Z,12.33
2022-08-26T20:51:05.588Z,12.83
2022-08-26T20:53:37.758Z,12.63
2022-08-26T20:56:10.746Z,13.70
2022-08-26T20:58:42.949Z,12.80
2022-08-26T21:01:19.878Z,11.80
2022-08-26T21:03:55.726Z,11.80
2022-08-26T21:06:27.707Z,11.50
2022-08-26T21:09:01.438Z,13.33
2022-08-26T21:11:34.319Z,11.40
2022-08-26T21:14:16.055Z,11.57
2022-08-26T21:16:49.351Z,11.27
2022-08-26T21:19:21.569Z,12.00
2022-08-26T21:21:53.768Z,11.70
2022-08-26T21:24:25.985Z,12.20
2022-08-26T21:26:58.284Z,12.60
2022-08-26T21:29:30.564Z,13.03
2022-08-26T21:32:02.973Z,12.60
2022-08-26T21:34:34.879Z,13.90
2022-08-26T21:37:13.311Z,13.50
2022-08-26T21:39:48.876Z,13.93
2022-08-26T21:42:21.537Z,13.20
2022-08-26T21:44:53.838Z,14.53
2022-08-26T21:47:26.132Z,15.50
2022-08-26T21:49:58.662Z,14.47
2022-08-26T21:52:30.646Z,13.80
2022-08-26T21:55:03.926Z,13.93
2022-08-26T21:57:41.038Z,14.10
2022-08-26T22:00:15.750Z,13.53
2022-08-26T22:02:50.212Z,11.80
2022-08-26T22:05:22.209Z,13.10
2022-08-26T22:07:54.493Z,12.70
2022-08-26T22:10:26.424Z,12.30
2022-08-26T22:12:58.509Z,12.63
2022-08-26T22:15:32.980Z,11.70
2022-08-26T22:18:06.070Z,11.87
2022-08-26T22:20:38.450Z,12.27
2022-08-26T22:23:10.961Z,11.47
2022-08-26T22:25:43.130Z,11.40
2022-08-26T22:28:15.848Z,10.90
2022-08-26T22:30:48.402Z,9.70
2022-08-26T22:33:20.353Z,10.50
2022-08-26T22:35:53.053Z,9.70
2022-08-26T22:38:25.032Z,10.80
2022-08-26T22:41:00.271Z,9.80
2022-08-26T22:43:32.769Z,9.43
2022-08-26T22:46:08.425Z,11.80
2022-08-26T22:48:40.363Z,10.90
2022-08-26T22:51:12.433Z,9.00
2022-08-26T22:53:45.238Z,10.80
2022-08-26T22:56:19.046Z,10.80
2022-08-26T22:58:51.252Z,10.57
2022-08-26T23:01:23.908Z,10.33
2022-08-26T23:03:56.060Z,9.83
2022-08-26T23:06:27.994Z,10.77
2022-08-26T23:08:59.956Z,10.00
2022-08-26T23:11:32.136Z,9.87
2022-08-26T23:14:06.192Z,10.57
2022-08-26T23:16:41.680Z,9.67
2022-08-26T23:19:14.682Z,10.17
2022-08-26T23:21:46.987Z,12.23
2022-08-26T23:24:18.923Z,10.53
2022-08-26T23:26:50.885Z,9.93
2022-08-26T23:29:22.940Z,10.90
2022-08-26T23:31:55.191Z,9.70
2022-08-26T23:34:46.128Z,10.00
2022-08-26T23:37:20.570Z,10.37
2022-08-26T23:39:54.824Z,10.07
2022-08-26T23:42:26.812Z,11.37
2022-08-26T23:45:03.650Z,10.80
2022-08-26T23:47:35.714Z,11.60
2022-08-26T23:50:08.983Z,10.90
2022-08-26T23:52:59.412Z,11.20
2022-08-26T23:55:38.767Z,11.50
2022-08-26T23:58:11.317Z,11.00
